Terminal Aerodrome Forecast
Issued by NWS

Home | Current Version | Previous Version | Text Only | Print | Product List | Glossary On
Versions: 1 2 3 4 5 6 7 8 9 10 11 12 13 14 15 16 17 18 19 20 21 22 23 24 25 26 27 28 29 30 31 32 33 34 35 36 37 38 39 40 41 42 43 44 45 46 47 48 49 50
000
FTUS45 KGJT 192332
TAFASE
TAF
KASE 192332Z 2000/2024 02007KT P6SM VCSH SCT050 BKN080
     FM200200 21004KT P6SM VCSH SCT050 BKN080
     FM200700 35004KT 3SM -SN BR SCT012 OVC030
     FM201300 36003KT P6SM VCSH BKN050
     FM201800 36006KT P6SM VCSH SCT050 BKN080=

USA.gov is the U.S. government's official web portal to all federal, state and local government web resources and services.